Suitland, Maryland
Current Conditions -  °F | °C
As of 11:27 AM on Friday 21 Nov 2014 (Local Time) from KADW Reporting Station
Clear Clear  
Wind Chill: 21°   Ceiling: Unl
Heat Index: 32°   Visibility: 10mi
Dew Point:   Wind: 16mph
Humidity: 35%   Direction: 290°WNW
Pressure: 30.44"   Gusts: 26mph
Location:  38.85°N, 76.92°W
Report Text: KADW 211627Z AUTO 29014G23KT 10SM CLR 00/M14 A3044 RMK AO2 WSHFT 18
Loading
Personal Weather Stations






























Interactive Weather Map New forecast layout! Learn more

10-Day Weather Forecast

Advertisements
Track Severe Weather on mobile